createdAt,value
2018-08-06T00:02:10.199Z,22.90
2018-08-06T00:04:38.565Z,23.10
2018-08-06T00:07:07.345Z,23.40
2018-08-06T00:09:35.878Z,23.80
2018-08-06T00:12:04.288Z,23.70
2018-08-06T00:14:32.790Z,23.80
2018-08-06T00:17:01.084Z,23.80
2018-08-06T00:19:29.960Z,23.70
2018-08-06T00:21:58.302Z,24.20
2018-08-06T00:24:26.729Z,24.70
2018-08-06T00:26:55.165Z,25.10
2018-08-06T00:29:23.536Z,25.40
2018-08-06T00:31:51.922Z,25.40
2018-08-06T00:34:20.430Z,25.50
2018-08-06T00:36:48.893Z,25.50
2018-08-06T00:39:17.191Z,25.70
2018-08-06T00:41:45.601Z,26.00
2018-08-06T00:44:13.990Z,25.10
2018-08-06T00:46:42.573Z,25.00
2018-08-06T00:49:10.982Z,24.90
2018-08-06T00:51:39.353Z,25.50
2018-08-06T00:54:07.776Z,26.50
2018-08-06T00:56:36.426Z,27.20
2018-08-06T00:59:04.860Z,27.60
2018-08-06T01:01:33.203Z,28.50
2018-08-06T01:04:01.760Z,28.90
2018-08-06T01:06:30.111Z,30.20
2018-08-06T01:08:58.867Z,31.70
2018-08-06T01:11:27.204Z,31.70
2018-08-06T01:13:55.543Z,32.90
2018-08-06T01:16:24.911Z,33.80
2018-08-06T01:18:53.334Z,35.80
2018-08-06T01:21:21.910Z,37.00
2018-08-06T01:23:50.383Z,39.10
2018-08-06T01:26:18.755Z,38.50
2018-08-06T01:28:47.374Z,38.10
2018-08-06T01:31:15.736Z,36.80
2018-08-06T01:33:44.061Z,35.90
2018-08-06T01:36:12.439Z,35.90
2018-08-06T01:38:40.871Z,36.30
2018-08-06T01:41:09.540Z,37.80
2018-08-06T01:43:37.931Z,37.20
2018-08-06T01:46:06.350Z,37.80
2018-08-06T01:48:34.782Z,37.90
2018-08-06T01:51:03.292Z,38.80
2018-08-06T01:53:31.604Z,39.20
2018-08-06T01:55:59.992Z,40.60
2018-08-06T01:58:28.379Z,41.70
2018-08-06T02:00:56.767Z,43.40
2018-08-06T02:03:25.522Z,44.20
2018-08-06T02:05:53.926Z,44.30
2018-08-06T02:08:22.378Z,46.70
2018-08-06T02:10:51.031Z,48.80
2018-08-06T02:13:19.347Z,51.60
2018-08-06T02:15:47.697Z,53.70
2018-08-06T02:18:16.090Z,55.30
2018-08-06T02:20:44.421Z,55.40
2018-08-06T02:23:12.804Z,58.90
2018-08-06T02:28:09.307Z,61.40
2018-08-06T02:30:38.618Z,65.10
2018-08-06T02:33:07.463Z,66.90
2018-08-06T02:35:36.252Z,69.80
2018-08-06T02:38:05.542Z,71.10
2018-08-06T02:40:34.444Z,71.10
2018-08-06T02:43:03.224Z,71.20
2018-08-06T02:45:32.056Z,71.10
2018-08-06T02:48:00.861Z,71.50
2018-08-06T02:50:29.733Z,73.10
2018-08-06T02:52:58.491Z,74.00
2018-08-06T02:55:27.233Z,73.50
2018-08-06T02:57:56.107Z,75.50
2018-08-06T03:00:25.041Z,77.20
2018-08-06T03:02:53.788Z,81.80
2018-08-06T03:05:22.628Z,83.30
2018-08-06T03:07:51.483Z,83.90
2018-08-06T03:10:20.399Z,84.40
2018-08-06T03:12:49.150Z,84.60
2018-08-06T03:15:18.336Z,84.90
2018-08-06T03:17:47.076Z,84.90
2018-08-06T03:20:16.127Z,85.00
2018-08-06T03:22:44.952Z,84.50
2018-08-06T03:25:16.354Z,84.10
2018-08-06T03:27:45.710Z,83.50
2018-08-06T03:30:15.984Z,82.80
2018-08-06T03:32:45.487Z,82.70
2018-08-06T03:35:13.972Z,83.30
2018-08-06T03:37:42.625Z,83.80
2018-08-06T03:40:11.586Z,84.20
2018-08-06T03:42:39.971Z,84.10
2018-08-06T03:45:10.085Z,84.30
2018-08-06T03:47:38.966Z,83.90
2018-08-06T03:50:08.756Z,83.40
2018-08-06T03:52:37.175Z,83.20
2018-08-06T03:55:06.542Z,83.60
2018-08-06T03:57:35.072Z,83.40
2018-08-06T04:00:04.870Z,83.10
2018-08-06T04:02:33.200Z,83.30
2018-08-06T04:05:01.824Z,83.50
2018-08-06T04:07:30.163Z,83.90
2018-08-06T04:09:58.624Z,84.40
2018-08-06T04:12:26.968Z,84.90
2018-08-06T04:14:55.345Z,84.90
2018-08-06T04:17:23.755Z,84.30
2018-08-06T04:19:52.420Z,83.60
2018-08-06T04:22:20.835Z,80.90
2018-08-06T04:24:49.250Z,77.70
2018-08-06T04:27:17.675Z,73.90
2018-08-06T04:29:46.062Z,69.30
2018-08-06T04:32:14.413Z,65.10
2018-08-06T04:34:42.798Z,65.60
2018-08-06T04:37:11.245Z,66.30
2018-08-06T04:39:39.749Z,62.50
2018-08-06T04:42:08.171Z,56.40
2018-08-06T04:44:36.475Z,48.40
2018-08-06T04:47:05.216Z,44.40
2018-08-06T04:49:33.753Z,42.50
2018-08-06T04:52:02.173Z,40.70
2018-08-06T04:54:30.700Z,39.90
2018-08-06T04:56:59.060Z,41.90
2018-08-06T04:59:27.497Z,46.20
2018-08-06T05:01:55.903Z,43.00
2018-08-06T05:04:24.861Z,37.60
2018-08-06T05:06:53.288Z,30.90
2018-08-06T05:09:23.870Z,29.60
2018-08-06T05:11:52.322Z,26.90
2018-08-06T05:14:21.512Z,26.00
2018-08-06T05:16:49.972Z,28.10
2018-08-06T05:19:18.478Z,28.50
2018-08-06T05:21:46.855Z,27.20
2018-08-06T05:26:43.493Z,24.70
2018-08-06T05:29:11.919Z,24.50
2018-08-06T05:31:40.431Z,21.50
2018-08-06T05:34:09.105Z,19.70
2018-08-06T05:36:37.519Z,18.30
2018-08-06T05:39:08.544Z,19.00
2018-08-06T05:41:36.964Z,20.30
2018-08-06T05:44:05.993Z,20.60
2018-08-06T05:49:02.737Z,20.90
2018-08-06T05:51:31.079Z,19.80
2018-08-06T05:53:59.411Z,19.70
2018-08-06T05:56:27.702Z,17.80
2018-08-06T05:58:56.682Z,16.70
2018-08-06T06:01:25.114Z,14.40
2018-08-06T06:03:53.919Z,15.10
2018-08-06T06:06:22.428Z,15.60
2018-08-06T06:08:50.856Z,16.30
2018-08-06T06:11:19.344Z,15.10
2018-08-06T06:13:47.637Z,14.10
2018-08-06T06:16:16.112Z,14.80
2018-08-06T06:18:44.477Z,16.00
2018-08-06T06:21:12.790Z,15.70
2018-08-06T06:23:41.250Z,14.50
2018-08-06T06:26:09.616Z,13.40
2018-08-06T06:28:37.949Z,13.90
2018-08-06T06:31:06.461Z,12.20
2018-08-06T06:33:34.870Z,11.80
2018-08-06T06:36:03.232Z,11.90
2018-08-06T06:38:31.654Z,9.90
2018-08-06T06:41:00.131Z,9.80
2018-08-06T06:43:28.467Z,10.50
2018-08-06T06:45:56.858Z,10.80
2018-08-06T06:48:25.182Z,9.80
2018-08-06T06:55:49.768Z,9.70
2018-08-06T06:58:18.198Z,9.80
2018-08-06T07:00:46.666Z,8.70
2018-08-06T07:03:15.125Z,7.50
2018-08-06T07:05:43.421Z,7.10
2018-08-06T07:08:11.821Z,7.40
2018-08-06T07:10:40.323Z,5.90
2018-08-06T07:13:08.686Z,5.40
2018-08-06T07:15:37.190Z,4.90
2018-08-06T07:18:05.955Z,5.30
2018-08-06T07:20:34.438Z,4.10
2018-08-06T07:23:02.898Z,5.20
2018-08-06T07:25:31.527Z,3.60
2018-08-06T07:28:00.092Z,3.90
2018-08-06T07:30:28.581Z,3.90
2018-08-06T07:32:57.013Z,3.70
2018-08-06T07:35:25.416Z,2.30
2018-08-06T07:37:53.964Z,2.30
2018-08-06T07:40:22.393Z,3.40
2018-08-06T07:42:50.902Z,2.40
2018-08-06T07:45:20.271Z,1.40
2018-08-06T07:47:49.474Z,1.70
2018-08-06T07:50:19.401Z,1.00
2018-08-06T07:52:48.052Z,1.00
2018-08-06T07:55:16.491Z,1.00
2018-08-06T07:57:45.014Z,1.00
2018-08-06T08:00:15.427Z,1.00
2018-08-06T08:02:44.011Z,1.00
2018-08-06T08:05:14.079Z,1.00
2018-08-06T08:07:44.091Z,1.00
2018-08-06T08:10:16.432Z,1.00
2018-08-06T08:12:45.422Z,1.00
2018-08-06T08:15:15.859Z,1.00
2018-08-06T08:17:45.704Z,1.00
2018-08-06T08:20:15.199Z,1.00
2018-08-06T08:22:43.820Z,1.00
2018-08-06T08:25:14.050Z,1.00
2018-08-06T08:27:42.875Z,1.00
2018-08-06T08:30:12.856Z,1.00
2018-08-06T08:32:41.304Z,1.00
2018-08-06T08:35:10.421Z,1.00
2018-08-06T08:37:38.850Z,1.00
2018-08-06T08:40:11.269Z,1.00
2018-08-06T08:42:39.705Z,1.00
2018-08-06T08:45:11.246Z,1.00
2018-08-06T08:47:40.123Z,1.00
2018-08-06T08:50:11.036Z,1.00
2018-08-06T08:52:40.314Z,1.00
2018-08-06T08:55:09.051Z,1.00
2018-08-06T08:57:37.720Z,1.00
2018-08-06T09:00:11.617Z,1.00
2018-08-06T09:02:41.333Z,1.00
2018-08-06T09:05:09.682Z,1.00
2018-08-06T09:07:38.611Z,1.00
2018-08-06T09:10:09.137Z,1.00
2018-08-06T09:12:38.542Z,1.00
2018-08-06T09:15:13.748Z,1.00
2018-08-06T09:17:42.571Z,1.00
2018-08-06T09:20:11.855Z,1.00
2018-08-06T09:25:10.629Z,1.00
2018-08-06T09:27:40.336Z,1.00
2018-08-06T09:32:39.992Z,1.00
2018-08-06T09:35:09.271Z,1.00
2018-08-06T09:37:38.256Z,1.00
2018-08-06T09:40:09.044Z,1.00
2018-08-06T09:42:37.802Z,1.00
2018-08-06T09:45:07.639Z,1.00
2018-08-06T09:47:36.038Z,1.00
2018-08-06T09:50:05.551Z,1.00
2018-08-06T09:52:34.892Z,1.00
2018-08-06T09:55:03.404Z,1.00
2018-08-06T09:57:31.847Z,1.00
2018-08-06T10:00:00.728Z,1.00
2018-08-06T10:02:29.310Z,1.00
2018-08-06T10:04:58.734Z,1.00
2018-08-06T10:07:27.169Z,1.00
2018-08-06T10:09:55.970Z,1.00
2018-08-06T10:12:24.327Z,1.00
2018-08-06T10:14:52.770Z,1.00
2018-08-06T10:17:21.336Z,1.00
2018-08-06T10:19:49.722Z,1.00
2018-08-06T10:22:18.466Z,1.00
2018-08-06T10:24:46.947Z,1.00
2018-08-06T10:27:15.446Z,1.00
2018-08-06T10:29:43.904Z,1.00
2018-08-06T10:32:12.288Z,1.00
2018-08-06T10:34:40.974Z,1.00
2018-08-06T10:37:09.429Z,1.00
2018-08-06T10:39:37.960Z,1.00
2018-08-06T10:42:06.613Z,1.00
2018-08-06T10:44:35.049Z,1.00
2018-08-06T10:47:03.458Z,1.00
2018-08-06T10:49:31.828Z,1.00
2018-08-06T10:52:00.661Z,1.00
2018-08-06T10:54:29.268Z,1.00
2018-08-06T10:56:58.480Z,1.00
2018-08-06T10:59:26.965Z,1.00
2018-08-06T11:01:55.774Z,1.00
2018-08-06T11:04:24.500Z,1.00
2018-08-06T11:06:53.608Z,1.00
2018-08-06T11:09:22.263Z,1.00
2018-08-06T11:11:50.890Z,1.00
2018-08-06T11:14:19.267Z,1.00
2018-08-06T11:16:47.734Z,1.00
2018-08-06T11:19:16.155Z,1.00
2018-08-06T11:21:45.105Z,1.00
2018-08-06T11:24:13.866Z,1.00
2018-08-06T11:26:42.822Z,1.00
2018-08-06T11:29:11.225Z,1.00
2018-08-06T11:31:39.784Z,1.00
2018-08-06T11:34:08.393Z,1.00
2018-08-06T11:36:37.061Z,1.00
2018-08-06T11:39:08.043Z,1.00
2018-08-06T11:41:36.444Z,1.00
2018-08-06T11:44:04.997Z,1.00
2018-08-06T11:46:33.402Z,1.00
2018-08-06T11:49:02.196Z,1.00
2018-08-06T11:51:30.648Z,1.00
2018-08-06T11:53:59.205Z,1.00
2018-08-06T11:56:27.843Z,1.00
2018-08-06T11:58:56.420Z,1.00
2018-08-06T12:01:24.953Z,1.00
2018-08-06T12:03:53.485Z,1.00
2018-08-06T12:06:21.823Z,1.00
2018-08-06T12:08:50.179Z,1.00
2018-08-06T12:11:18.637Z,1.00
2018-08-06T12:13:47.094Z,1.00
2018-08-06T12:16:15.372Z,1.00
2018-08-06T12:18:43.788Z,1.00
2018-08-06T12:21:14.228Z,1.00
2018-08-06T12:23:43.770Z,1.00
2018-08-06T12:26:13.062Z,1.00
2018-08-06T12:28:42.653Z,1.00
2018-08-06T12:31:11.856Z,1.00
2018-08-06T12:33:42.201Z,1.00
2018-08-06T12:36:12.671Z,1.00
2018-08-06T12:38:47.096Z,1.00
2018-08-06T12:41:17.756Z,1.00
2018-08-06T12:43:46.540Z,1.00
2018-08-06T12:46:16.042Z,1.00
2018-08-06T12:48:44.688Z,1.00
2018-08-06T12:51:13.808Z,1.00
2018-08-06T12:53:43.195Z,1.00
2018-08-06T12:56:12.705Z,1.00
2018-08-06T12:58:41.018Z,1.00
2018-08-06T13:01:09.448Z,1.00
2018-08-06T13:03:38.171Z,1.00
2018-08-06T13:06:06.892Z,1.00
2018-08-06T13:08:36.672Z,1.00
2018-08-06T13:11:05.096Z,1.00
2018-08-06T13:13:33.850Z,1.00
2018-08-06T13:16:02.235Z,1.00
2018-08-06T13:18:31.466Z,1.00
2018-08-06T13:21:00.465Z,1.00
2018-08-06T13:23:31.378Z,1.00
2018-08-06T13:26:00.076Z,1.00
2018-08-06T13:28:28.911Z,1.00
2018-08-06T13:30:57.987Z,1.00
2018-08-06T13:35:54.885Z,1.00
2018-08-06T13:38:23.720Z,1.00
2018-08-06T13:40:52.067Z,1.00
2018-08-06T13:45:48.725Z,1.00
2018-08-06T13:48:18.478Z,1.00
2018-08-06T13:50:48.302Z,1.00
2018-08-06T13:53:17.886Z,1.00
2018-08-06T13:55:46.395Z,1.00
2018-08-06T13:58:15.394Z,1.00
2018-08-06T14:00:43.976Z,1.00
2018-08-06T14:03:14.358Z,1.00
2018-08-06T14:05:42.695Z,1.00
2018-08-06T14:08:11.419Z,1.00
2018-08-06T14:10:40.130Z,1.00
2018-08-06T14:13:09.015Z,1.00
2018-08-06T14:15:37.835Z,1.00
2018-08-06T14:18:07.356Z,1.00
2018-08-06T14:20:36.664Z,1.00
2018-08-06T14:23:05.391Z,1.00
2018-08-06T14:25:34.214Z,1.00
2018-08-06T14:28:02.739Z,1.00
2018-08-06T14:30:32.027Z,1.00
2018-08-06T14:33:00.680Z,1.00
2018-08-06T14:35:29.101Z,1.00
2018-08-06T14:37:57.660Z,1.00
2018-08-06T14:40:26.162Z,1.00
2018-08-06T14:42:56.361Z,1.00
2018-08-06T14:45:25.001Z,1.00
2018-08-06T14:47:53.443Z,1.00
2018-08-06T14:50:21.955Z,1.00
2018-08-06T14:52:50.343Z,1.00
2018-08-06T14:55:19.365Z,1.00
2018-08-06T14:57:47.770Z,1.00
2018-08-06T15:00:20.017Z,1.00
2018-08-06T15:02:49.188Z,1.00
2018-08-06T15:05:18.538Z,1.00
2018-08-06T15:07:48.375Z,1.00
2018-08-06T15:10:16.950Z,1.00
2018-08-06T15:12:45.770Z,1.00
2018-08-06T15:15:15.961Z,1.00
2018-08-06T15:17:45.138Z,1.00
2018-08-06T15:20:15.452Z,1.00
2018-08-06T15:22:44.325Z,1.00
2018-08-06T15:25:20.132Z,1.00
2018-08-06T15:27:48.872Z,1.00
2018-08-06T15:30:17.510Z,1.00
2018-08-06T15:32:46.803Z,1.00
2018-08-06T15:35:16.220Z,1.00
2018-08-06T15:37:45.144Z,1.00
2018-08-06T15:40:16.052Z,1.00
2018-08-06T15:42:45.655Z,1.00
2018-08-06T15:45:14.852Z,1.00
2018-08-06T15:47:44.829Z,1.00
2018-08-06T15:50:16.745Z,1.00
2018-08-06T15:52:47.397Z,1.00
2018-08-06T15:55:16.599Z,1.00
2018-08-06T15:57:45.474Z,1.00
2018-08-06T16:00:16.382Z,1.00
2018-08-06T16:02:46.280Z,1.00
2018-08-06T16:05:16.196Z,1.00
2018-08-06T16:07:44.783Z,1.00
2018-08-06T16:10:14.190Z,1.00
2018-08-06T16:12:43.555Z,1.00
2018-08-06T16:15:13.960Z,1.00
2018-08-06T16:17:43.400Z,1.00
2018-08-06T16:20:15.231Z,1.00
2018-08-06T16:22:43.645Z,1.00
2018-08-06T16:25:12.832Z,1.00
2018-08-06T16:27:41.660Z,1.00
2018-08-06T16:30:13.873Z,1.00
2018-08-06T16:32:42.954Z,1.00
2018-08-06T16:35:11.702Z,1.00
2018-08-06T16:37:40.221Z,1.00
2018-08-06T16:40:09.708Z,1.00
2018-08-06T16:42:38.240Z,1.00
2018-08-06T16:45:07.703Z,1.00
2018-08-06T16:47:37.216Z,1.00
2018-08-06T16:50:06.910Z,1.00
2018-08-06T16:52:35.491Z,1.00
2018-08-06T16:55:05.175Z,1.00
2018-08-06T16:57:33.696Z,1.00
2018-08-06T17:00:02.082Z,1.00
2018-08-06T17:02:30.620Z,1.00
2018-08-06T17:05:00.119Z,1.00
2018-08-06T17:07:29.682Z,1.00
2018-08-06T17:09:58.453Z,1.00
2018-08-06T17:12:27.410Z,1.00
2018-08-06T17:14:56.403Z,1.00
2018-08-06T17:17:25.131Z,1.00
2018-08-06T17:19:53.829Z,1.00
2018-08-06T17:22:23.026Z,1.00
2018-08-06T17:24:52.252Z,1.00
2018-08-06T17:27:21.073Z,1.00
2018-08-06T17:29:50.151Z,1.00
2018-08-06T17:32:19.420Z,1.00
2018-08-06T17:34:54.884Z,1.00
2018-08-06T17:37:27.576Z,1.00
2018-08-06T17:39:57.589Z,1.00
2018-08-06T17:42:28.232Z,1.00
2018-08-06T17:47:33.764Z,1.00
2018-08-06T17:50:03.629Z,1.00
2018-08-06T17:52:34.690Z,1.00
2018-08-06T17:55:06.063Z,1.00
2018-08-06T17:57:35.430Z,1.00
2018-08-06T18:00:05.165Z,1.00
2018-08-06T18:02:34.541Z,1.00
2018-08-06T18:05:03.046Z,1.00
2018-08-06T18:07:31.499Z,1.00
2018-08-06T18:10:00.391Z,1.00
2018-08-06T18:12:32.551Z,1.00
2018-08-06T18:15:00.986Z,1.00
2018-08-06T18:17:29.414Z,1.00
2018-08-06T18:19:57.815Z,1.00
2018-08-06T18:22:27.052Z,1.00
2018-08-06T18:24:55.497Z,1.00
2018-08-06T18:27:24.181Z,1.00
2018-08-06T18:29:52.547Z,1.00
2018-08-06T18:32:20.950Z,1.00
2018-08-06T18:34:49.463Z,1.00
2018-08-06T18:37:17.893Z,1.00
2018-08-06T18:39:46.407Z,1.00
2018-08-06T18:42:15.309Z,1.00
2018-08-06T18:44:43.860Z,1.00
2018-08-06T18:47:13.151Z,1.00
2018-08-06T18:49:41.768Z,1.00
2018-08-06T18:52:10.331Z,1.00
2018-08-06T18:54:38.749Z,1.00
2018-08-06T18:57:07.322Z,1.00
2018-08-06T18:59:35.893Z,1.00
2018-08-06T19:02:04.834Z,1.00
2018-08-06T19:04:33.409Z,1.00
2018-08-06T19:07:01.957Z,1.00
2018-08-06T19:09:30.367Z,1.00
2018-08-06T19:12:03.370Z,1.00
2018-08-06T19:14:31.706Z,1.00
2018-08-06T19:17:01.803Z,1.00
2018-08-06T19:19:30.431Z,1.00
2018-08-06T19:21:59.640Z,1.00
2018-08-06T19:24:32.556Z,1.00
2018-08-06T19:27:01.671Z,1.00
2018-08-06T19:29:30.460Z,1.00
2018-08-06T19:31:59.663Z,1.00
2018-08-06T19:34:28.246Z,1.00
2018-08-06T19:37:00.816Z,1.00
2018-08-06T19:39:29.205Z,1.00
2018-08-06T19:41:57.808Z,1.00
2018-08-06T19:44:26.816Z,1.00
2018-08-06T19:46:55.528Z,1.00
2018-08-06T19:49:28.306Z,1.00
2018-08-06T19:51:56.905Z,1.00
2018-08-06T19:54:25.947Z,1.00
2018-08-06T19:56:55.132Z,1.00
2018-08-06T19:59:24.077Z,1.00
2018-08-06T20:01:52.906Z,1.00
2018-08-06T20:04:21.850Z,1.00
2018-08-06T20:06:50.346Z,1.00
2018-08-06T20:09:18.848Z,1.00
2018-08-06T20:11:47.395Z,1.00
2018-08-06T20:14:15.983Z,1.00
2018-08-06T20:16:45.916Z,1.00
2018-08-06T20:19:14.290Z,1.00
2018-08-06T20:21:43.013Z,1.00
2018-08-06T20:24:13.620Z,1.00
2018-08-06T20:26:42.281Z,1.00
2018-08-06T20:29:10.770Z,1.00
2018-08-06T20:31:39.169Z,1.00
2018-08-06T20:34:09.126Z,1.00
2018-08-06T20:36:37.721Z,1.00
2018-08-06T20:39:08.266Z,1.00
2018-08-06T20:41:36.715Z,1.00
2018-08-06T20:44:06.389Z,1.00
2018-08-06T20:46:34.977Z,1.00
2018-08-06T20:49:03.957Z,1.00
2018-08-06T20:51:32.453Z,1.00
2018-08-06T20:54:00.905Z,1.00
2018-08-06T20:56:30.444Z,1.00
2018-08-06T20:58:58.849Z,1.30
2018-08-06T21:01:27.451Z,1.30
2018-08-06T21:03:56.064Z,1.30
2018-08-06T21:06:24.764Z,1.30
2018-08-06T21:08:53.174Z,2.20
2018-08-06T21:11:21.607Z,2.60
2018-08-06T21:13:50.179Z,3.10
2018-08-06T21:16:18.595Z,4.00
2018-08-06T21:18:47.434Z,4.60
2018-08-06T21:21:15.797Z,6.10
2018-08-06T21:23:44.392Z,5.40
2018-08-06T21:26:12.887Z,6.60
2018-08-06T21:28:41.275Z,6.40
2018-08-06T21:31:09.779Z,6.90
2018-08-06T21:33:38.324Z,7.10
2018-08-06T21:36:07.449Z,7.40
2018-08-06T21:38:36.405Z,7.50
2018-08-06T21:43:33.756Z,7.50
2018-08-06T21:46:02.447Z,7.60
2018-08-06T21:48:31.204Z,7.00
2018-08-06T21:50:59.720Z,7.20
2018-08-06T21:53:28.165Z,7.50
2018-08-06T21:55:57.162Z,8.30
2018-08-06T21:58:25.513Z,8.80
2018-08-06T22:00:53.880Z,8.90
2018-08-06T22:03:22.268Z,9.20
2018-08-06T22:05:50.698Z,9.30
2018-08-06T22:08:19.667Z,10.20
2018-08-06T22:10:48.019Z,10.20
2018-08-06T22:13:16.323Z,10.50
2018-08-06T22:15:45.092Z,11.40
2018-08-06T22:18:13.923Z,12.40
2018-08-06T22:20:42.264Z,12.30
2018-08-06T22:23:10.581Z,12.00
2018-08-06T22:25:38.971Z,12.10
2018-08-06T22:28:09.599Z,12.60
2018-08-06T22:30:38.952Z,11.20
2018-08-06T22:33:07.308Z,10.80
2018-08-06T22:35:35.590Z,10.50
2018-08-06T22:38:04.116Z,9.90
2018-08-06T22:40:32.455Z,10.90
2018-08-06T22:43:01.155Z,11.20
2018-08-06T22:45:29.502Z,12.20
2018-08-06T22:47:57.843Z,13.50
2018-08-06T22:50:26.299Z,14.90
2018-08-06T22:52:54.824Z,15.10
2018-08-06T22:55:23.487Z,14.80
2018-08-06T22:57:52.238Z,15.20
2018-08-06T23:00:21.004Z,15.60
2018-08-06T23:05:17.373Z,17.50
2018-08-06T23:10:15.618Z,17.30
2018-08-06T23:12:44.156Z,17.20
2018-08-06T23:15:14.645Z,17.90
2018-08-06T23:17:43.477Z,18.70
2018-08-06T23:20:11.831Z,19.20
2018-08-06T23:22:40.283Z,19.10
2018-08-06T23:25:08.936Z,19.20
2018-08-06T23:27:38.303Z,20.10
2018-08-06T23:30:09.234Z,19.30
2018-08-06T23:32:37.837Z,19.30
2018-08-06T23:35:07.935Z,19.50
2018-08-06T23:37:36.319Z,19.70
2018-08-06T23:40:06.030Z,19.30
2018-08-06T23:42:34.388Z,19.00
2018-08-06T23:45:02.791Z,20.00
2018-08-06T23:47:31.139Z,19.60
2018-08-06T23:52:28.188Z,19.50
2018-08-06T23:54:56.514Z,19.00
2018-08-06T23:57:24.885Z,18.70
2018-08-06T23:59:53.959Z,18.50
